Time;durP1;ratioP1;P1;durP2;ratioP2;P2;SDS_P1;SDS_P2;PMS_P1;PMS_P2;Temp;Humidity;BMP_temperature;BMP_pressure;BME280_temperature;BME280_humidity;BME280_pressure;Samples;Min_cycle;Max_cycle;Signal;HPM_P1;HPM_P2
2023/12/20 00:00:12;;;;;;;7.43;4.25;;;;;;;5.45;100.00;101508.69;5041961;28;20100;-90
2023/12/20 00:02:37;;;;;;;8.52;4.82;;;;;;;5.43;100.00;101513.84;5037220;28;20121;-91
2023/12/20 00:05:03;;;;;;;9.20;4.50;;;;;;;5.39;100.00;101522.41;5014838;28;20166;-91
2023/12/20 00:07:28;;;;;;;9.82;4.13;;;;;;;5.35;100.00;101530.13;5031840;28;20033;-91
2023/12/20 00:09:54;;;;;;;8.02;4.43;;;;;;;5.30;100.00;101528.34;5033578;28;20029;-92
2023/12/20 00:12:19;;;;;;;9.88;4.50;;;;;;;5.28;100.00;101518.91;5014617;28;20374;-91
2023/12/20 00:14:44;;;;;;;11.60;4.40;;;;;;;5.23;100.00;101529.19;5033898;28;20136;-90
2023/12/20 00:17:10;;;;;;;11.20;4.50;;;;;;;5.19;100.00;101535.16;5033319;28;20045;-91
2023/12/20 00:19:35;;;;;;;9.27;3.75;;;;;;;5.21;100.00;101540.34;5035664;28;20025;-90
2023/12/20 00:22:01;;;;;;;14.32;3.85;;;;;;;5.14;100.00;101536.84;5014079;28;20064;-89
2023/12/20 00:24:26;;;;;;;9.23;3.73;;;;;;;5.13;100.00;101538.56;5021262;28;20024;-91
2023/12/20 00:26:52;;;;;;;8.15;3.65;;;;;;;5.08;100.00;101534.22;5020132;28;20080;-91
2023/12/20 00:29:17;;;;;;;6.68;3.10;;;;;;;5.06;100.00;101534.19;5031093;28;20067;-90
2023/12/20 00:31:42;;;;;;;9.73;3.03;;;;;;;5.06;100.00;101530.75;5030549;28;20084;-91
2023/12/20 00:34:07;;;;;;;7.40;2.67;;;;;;;5.06;100.00;101530.75;5033662;28;20029;-91
2023/12/20 00:36:33;;;;;;;6.10;2.45;;;;;;;5.08;100.00;101527.34;5016970;28;20033;-91
2023/12/20 00:38:58;;;;;;;7.50;2.45;;;;;;;5.10;100.00;101519.63;5013047;28;20029;-91
2023/12/20 00:41:23;;;;;;;6.90;2.30;;;;;;;5.08;100.00;101518.75;5037527;28;20108;-91
2023/12/20 00:43:49;;;;;;;7.47;2.00;;;;;;;5.08;100.00;101522.19;5037342;28;20075;-90
2023/12/20 00:46:14;;;;;;;5.90;2.00;;;;;;;5.05;100.00;101521.31;5013691;28;20099;-91
2023/12/20 00:48:41;;;;;;;6.03;1.88;;;;;;;5.03;100.00;101512.69;5034989;28;20427;-90
2023/12/20 00:51:08;;;;;;;8.67;1.80;;;;;;;5.00;100.00;101516.97;5014604;28;20037;-90
2023/12/20 00:53:33;;;;;;;5.70;1.80;;;;;;;4.99;100.00;101512.66;5027455;28;20381;-90
2023/12/20 00:55:58;;;;;;;7.03;2.10;;;;;;;4.96;100.00;101519.50;5017546;28;20495;-90
2023/12/20 00:58:24;;;;;;;7.28;1.70;;;;;;;4.93;100.00;101504.00;5035217;28;20041;-90
2023/12/20 01:00:49;;;;;;;5.93;1.50;;;;;;;4.91;100.00;101524.63;5013789;28;20037;-90
2023/12/20 01:03:15;;;;;;;6.53;1.60;;;;;;;4.88;100.00;101524.59;5035719;28;20029;-90
2023/12/20 01:05:40;;;;;;;5.50;1.38;;;;;;;4.85;100.00;101519.41;5037768;28;20048;-91
2023/12/20 01:08:06;;;;;;;4.53;1.40;;;;;;;4.85;100.00;101514.25;5035798;28;20033;-92
2023/12/20 01:10:31;;;;;;;7.05;1.58;;;;;;;4.85;100.00;101514.25;5038916;28;20037;-91
2023/12/20 01:12:57;;;;;;;6.35;1.90;;;;;;;4.85;100.00;101515.13;5033765;28;20029;-90
2023/12/20 01:15:23;;;;;;;6.88;1.63;;;;;;;4.82;100.00;101521.97;5039635;28;20121;-91
2023/12/20 01:17:49;;;;;;;6.05;1.83;;;;;;;4.81;100.00;101512.50;5027060;28;20551;-90
2023/12/20 01:20:14;;;;;;;9.60;2.17;;;;;;;4.80;100.00;101515.91;5025259;28;20042;-91
2023/12/20 01:22:40;;;;;;;5.93;1.48;;;;;;;4.78;100.00;101517.66;5025518;28;20369;-91
2023/12/20 01:25:05;;;;;;;3.58;1.10;;;;;;;4.77;100.00;101521.91;5023672;28;20037;-91
2023/12/20 01:27:31;;;;;;;3.20;1.27;;;;;;;4.78;100.00;101527.97;5008233;28;20544;-91
2023/12/20 01:29:57;;;;;;;7.50;1.63;;;;;;;4.77;100.00;101521.91;5025743;28;20064;-91
2023/12/20 01:32:22;;;;;;;5.20;1.50;;;;;;;4.77;100.00;101526.22;5006440;28;20484;-91
2023/12/20 01:34:48;;;;;;;7.20;1.45;;;;;;;4.75;100.00;101523.63;5027142;28;20026;-91
2023/12/20 01:37:14;;;;;;;6.35;1.30;;;;;;;4.74;100.00;101518.47;5007477;28;20145;-91
2023/12/20 01:39:39;;;;;;;7.03;1.60;;;;;;;4.76;100.00;101529.66;5029678;28;20100;-90
2023/12/20 01:42:04;;;;;;;5.18;1.30;;;;;;;4.75;100.00;101530.50;5007827;28;20041;-91
2023/12/20 01:44:30;;;;;;;6.13;1.40;;;;;;;4.76;100.00;101529.66;5023820;28;20533;-91
2023/12/20 01:46:56;;;;;;;7.50;1.37;;;;;;;4.77;100.00;101511.59;5017809;28;20029;-90
2023/12/20 01:49:22;;;;;;;8.87;1.60;;;;;;;4.76;100.00;101519.34;5024397;28;20515;-91
2023/12/20 01:51:47;;;;;;;7.07;1.58;;;;;;;4.76;100.00;101520.19;5020471;28;20401;-92
2023/12/20 01:54:13;;;;;;;5.57;1.35;;;;;;;4.78;100.00;101527.97;5029190;28;20032;-92
2023/12/20 01:56:40;;;;;;;10.40;1.45;;;;;;;4.74;100.00;101521.03;5045117;28;20495;-92
2023/12/20 01:59:07;;;;;;;5.93;1.55;;;;;;;4.70;100.00;101533.88;5030536;28;20033;-92
2023/12/20 02:01:33;;;;;;;10.63;1.70;;;;;;;4.68;100.00;101534.75;5044404;28;20045;-91
2023/12/20 02:04:00;;;;;;;6.55;1.25;;;;;;;4.63;100.00;101526.94;5043441;28;20063;-92
2023/12/20 02:06:30;;;;;;;5.63;1.50;;;;;;;4.61;100.00;101525.19;5050037;28;20171;-92
2023/12/20 02:08:55;;;;;;;3.97;1.38;;;;;;;4.56;100.00;101526.00;5064472;28;20191;-91
2023/12/20 02:11:21;;;;;;;9.57;2.00;;;;;;;4.55;100.00;101521.69;5030228;28;20025;-91
2023/12/20 02:13:46;;;;;;;7.30;1.50;;;;;;;4.53;100.00;101533.69;5008067;28;20029;-93
2023/12/20 02:16:12;;;;;;;5.43;1.50;;;;;;;4.49;100.00;101536.25;5028407;28;20029;-93
2023/12/20 02:18:37;;;;;;;5.80;1.57;;;;;;;4.48;100.00;101534.50;5037476;28;20530;-91
2023/12/20 02:21:05;;;;;;;3.43;1.40;;;;;;;4.48;100.00;101534.50;5013068;28;20463;-91
2023/12/20 02:23:30;;;;;;;8.57;1.73;;;;;;;4.46;100.00;101531.03;5032687;28;20049;-92
2023/12/20 02:25:56;;;;;;;6.53;1.40;;;;;;;4.45;100.00;101526.75;5016593;28;20072;-92
2023/12/20 02:28:22;;;;;;;7.47;1.50;;;;;;;4.43;100.00;101526.75;5031224;28;20033;-91
2023/12/20 02:30:49;;;;;;;5.35;1.55;;;;;;;4.41;100.00;101528.44;5039972;28;20473;-91
2023/12/20 02:33:15;;;;;;;8.60;1.60;;;;;;;4.39;100.00;101525.84;5014357;28;20030;-91
2023/12/20 02:35:40;;;;;;;6.95;1.70;;;;;;;4.38;100.00;101521.53;5032301;28;20099;-93
2023/12/20 02:38:06;;;;;;;6.73;1.80;;;;;;;4.36;100.00;101525.81;5020426;28;20083;-92
2023/12/20 02:40:32;;;;;;;7.80;1.60;;;;;;;4.36;100.00;101528.38;5032363;28;20056;-92
2023/12/20 02:42:57;;;;;;;7.63;1.50;;;;;;;4.36;100.00;101528.38;5039625;28;20104;-92
2023/12/20 02:45:22;;;;;;;5.13;1.50;;;;;;;4.36;100.00;101528.38;5035067;28;20028;-92
2023/12/20 02:47:48;;;;;;;4.93;1.23;;;;;;;4.37;100.00;101527.53;5027563;28;20034;-92
2023/12/20 02:50:13;;;;;;;4.32;1.20;;;;;;;4.35;100.00;101524.06;5013772;28;20025;-92
2023/12/20 02:52:38;;;;;;;8.37;1.60;;;;;;;4.35;100.00;101518.94;5036724;28;20468;-91
2023/12/20 02:55:04;;;;;;;6.57;1.60;;;;;;;4.35;100.00;101523.22;5015720;28;20052;-92
2023/12/20 02:57:29;;;;;;;7.93;1.60;;;;;;;4.34;100.00;101526.66;5038939;28;20025;-92
2023/12/20 02:59:55;;;;;;;3.92;1.20;;;;;;;4.33;100.00;101519.78;5005885;28;20038;-92
2023/12/20 03:02:20;;;;;;;4.68;1.48;;;;;;;4.31;100.00;101517.16;5036969;28;20025;-92
2023/12/20 03:04:45;;;;;;;5.27;1.70;;;;;;;4.31;100.00;101516.31;5026003;28;20108;-93
2023/12/20 03:07:12;;;;;;;8.48;1.60;;;;;;;4.30;100.00;101517.16;5028969;28;20554;-93
2023/12/20 03:09:37;;;;;;;8.35;1.88;;;;;;;4.30;100.00;101515.44;5037037;28;20400;-92
2023/12/20 03:12:03;;;;;;;8.27;1.75;;;;;;;4.31;100.00;101512.00;5033438;28;20048;-91
2023/12/20 03:14:28;;;;;;;7.40;2.07;;;;;;;4.32;100.00;101502.59;5035704;28;20112;-92
2023/12/20 03:16:53;;;;;;;7.70;1.80;;;;;;;4.30;100.00;101504.28;5030810;28;20061;-93
2023/12/20 03:19:19;;;;;;;5.40;1.67;;;;;;;4.28;100.00;101496.50;5035513;28;20465;-94
2023/12/20 03:21:44;;;;;;;8.63;1.80;;;;;;;4.29;100.00;101490.50;5062235;28;20024;-92
2023/12/20 03:24:10;;;;;;;10.85;1.80;;;;;;;4.28;100.00;101490.50;5043841;28;20395;-92
2023/12/20 03:26:35;;;;;;;6.80;1.60;;;;;;;4.27;100.00;101492.22;5042304;28;20124;-93
2023/12/20 03:29:01;;;;;;;6.37;1.70;;;;;;;4.28;100.00;101499.09;5069500;28;20087;-90
2023/12/20 03:31:26;;;;;;;4.73;1.40;;;;;;;4.28;100.00;101499.09;5060512;28;20097;-91
2023/12/20 03:33:53;;;;;;;8.17;1.87;;;;;;;4.32;100.00;101500.00;5047813;28;20020;-92
2023/12/20 03:36:19;;;;;;;7.60;1.70;;;;;;;4.32;100.00;101500.00;5045803;28;20033;-92
2023/12/20 03:38:44;;;;;;;7.37;2.03;;;;;;;4.30;100.00;101499.97;5056395;28;20024;-92
2023/12/20 03:41:09;;;;;;;7.50;1.80;;;;;;;4.29;100.00;101495.66;5055701;28;20027;-95
2023/12/20 03:43:35;;;;;;;13.85;2.20;;;;;;;4.32;100.00;101487.13;5058566;28;20032;-93
2023/12/20 03:46:00;;;;;;;9.27;1.90;;;;;;;4.33;100.00;101484.56;5058884;28;20508;-91
2023/12/20 03:48:26;;;;;;;8.53;2.37;;;;;;;4.36;100.00;101488.88;5040294;28;20020;-92
2023/12/20 03:50:51;;;;;;;10.43;2.20;;;;;;;4.38;100.00;101474.28;5037291;28;20036;-90
2023/12/20 03:53:17;;;;;;;10.40;2.10;;;;;;;4.40;100.00;101473.47;5029267;28;20053;-94
2023/12/20 03:55:42;;;;;;;10.63;2.03;;;;;;;4.40;100.00;101480.31;5052014;28;20029;-90
2023/12/20 03:58:07;;;;;;;8.43;2.07;;;;;;;4.42;100.00;101491.50;5060110;28;20620;-92
2023/12/20 04:00:33;;;;;;;8.60;2.00;;;;;;;4.45;100.00;101485.50;5050673;28;20051;-91
2023/12/20 04:02:58;;;;;;;11.50;2.27;;;;;;;4.47;100.00;101487.28;5056709;28;20024;-92
2023/12/20 04:05:23;;;;;;;12.40;3.30;;;;;;;4.51;100.00;101501.06;5061235;28;20036;-93
2023/12/20 04:07:50;;;;;;;7.97;2.07;;;;;;;4.52;100.00;101500.19;5055594;28;20441;-91
2023/12/20 04:10:15;;;;;;;7.17;2.63;;;;;;;4.54;100.00;101508.81;5044284;28;20419;-92
2023/12/20 04:12:41;;;;;;;10.10;2.23;;;;;;;4.55;100.00;101501.09;5043508;28;20031;-94
2023/12/20 04:15:09;;;;;;;8.73;2.10;;;;;;;4.60;100.00;101497.69;5044059;28;20495;-92
2023/12/20 04:17:35;;;;;;;7.97;2.23;;;;;;;4.62;100.00;101493.44;5062934;28;20045;-93
2023/12/20 04:20:01;;;;;;;11.30;2.50;;;;;;;4.63;100.00;101490.84;5056981;28;20055;-93
2023/12/20 04:22:26;;;;;;;11.23;2.40;;;;;;;4.63;100.00;101496.00;5058460;28;20021;-93
2023/12/20 04:24:52;;;;;;;6.20;1.90;;;;;;;4.63;100.00;101496.00;5040114;28;20099;-93
2023/12/20 04:27:17;;;;;;;8.13;2.20;;;;;;;4.65;100.00;101489.16;5061434;28;20020;-94
2023/12/20 04:29:43;;;;;;;8.75;1.98;;;;;;;4.68;100.00;101491.78;5042137;28;20479;-93
2023/12/20 04:32:08;;;;;;;7.50;1.97;;;;;;;4.72;100.00;101500.38;5041660;28;20707;-91
2023/12/20 04:34:33;;;;;;;8.73;2.13;;;;;;;4.74;100.00;101488.38;5057332;28;20049;-91
2023/12/20 04:37:01;;;;;;;8.77;2.08;;;;;;;4.76;100.00;101483.25;5040229;28;20111;-92
2023/12/20 04:39:26;;;;;;;12.27;2.90;;;;;;;4.79;100.00;101488.41;5054878;28;20633;-93
2023/12/20 04:41:52;;;;;;;13.67;2.80;;;;;;;4.80;100.00;101485.88;5053692;28;20112;-94
2023/12/20 04:44:17;;;;;;;11.17;2.63;;;;;;;4.81;100.00;101487.59;5046984;28;20482;-93
2023/12/20 04:46:43;;;;;;;8.88;2.50;;;;;;;4.84;100.00;101492.78;5046294;28;20063;-93
2023/12/20 04:49:08;;;;;;;6.60;2.33;;;;;;;4.86;100.00;101490.19;5045617;28;20404;-92
2023/12/20 04:51:34;;;;;;;11.00;2.70;;;;;;;4.88;100.00;101497.94;5055160;28;20032;-92
2023/12/20 04:54:00;;;;;;;12.13;2.23;;;;;;;4.88;100.00;101487.63;5042199;28;20032;-93
2023/12/20 04:56:25;;;;;;;8.63;2.20;;;;;;;4.89;100.00;101499.66;5040110;28;20032;-93
2023/12/20 04:58:50;;;;;;;9.17;2.40;;;;;;;4.92;100.00;101502.28;5058595;28;20024;-93
2023/12/20 05:01:16;;;;;;;8.87;2.33;;;;;;;4.94;100.00;101504.03;5042142;28;20032;-95
2023/12/20 05:03:42;;;;;;;8.50;2.33;;;;;;;4.95;100.00;101495.41;5051713;28;20024;-93
2023/12/20 05:06:07;;;;;;;10.50;2.88;;;;;;;4.98;100.00;101492.88;5038586;28;20021;-91
2023/12/20 05:08:32;;;;;;;9.68;2.42;;;;;;;5.00;100.00;101486.00;5056171;28;20052;-91
2023/12/20 05:10:58;;;;;;;10.10;2.13;;;;;;;5.01;100.00;101484.31;5069791;28;20024;-92
2023/12/20 05:13:23;;;;;;;9.18;2.10;;;;;;;5.01;100.00;101480.00;5033307;28;20033;-94
2023/12/20 05:15:51;;;;;;;9.20;2.00;;;;;;;5.03;100.00;101479.16;5039265;28;20072;-93
2023/12/20 05:18:17;;;;;;;10.45;2.15;;;;;;;5.04;100.00;101479.16;5046398;28;20045;-93
2023/12/20 05:20:42;;;;;;;9.02;2.30;;;;;;;5.04;100.00;101473.16;5059722;28;20364;-93
2023/12/20 05:23:08;;;;;;;10.13;1.98;;;;;;;5.05;100.00;101470.56;5033065;28;20086;-95
2023/12/20 05:25:33;;;;;;;10.82;2.33;;;;;;;5.09;100.00;101471.47;5033526;28;20025;-93
2023/12/20 05:27:58;;;;;;;9.70;1.83;;;;;;;5.09;100.00;101481.78;5036329;28;20043;-93
2023/12/20 05:30:24;;;;;;;8.60;2.00;;;;;;;5.10;100.00;101474.06;5052856;28;20028;-93
2023/12/20 05:32:49;;;;;;;8.13;1.90;;;;;;;5.11;100.00;101474.94;5045533;28;20064;-96
2023/12/20 05:35:15;;;;;;;10.95;2.33;;;;;;;5.14;100.00;101467.19;5037628;28;20064;-94
2023/12/20 05:37:41;;;;;;;8.17;2.07;;;;;;;5.15;100.00;101467.22;5056590;28;20480;-92
2023/12/20 05:40:10;;;;;;;13.88;2.40;;;;;;;5.17;100.00;101469.81;5052616;28;20106;-92
2023/12/20 05:42:38;;;;;;;7.70;1.90;;;;;;;5.17;100.00;101469.81;5034813;28;20033;-93
2023/12/20 05:45:05;;;;;;;12.35;2.28;;;;;;;5.18;100.00;101471.53;5036786;28;20013;-93
2023/12/20 05:47:30;;;;;;;10.98;2.10;;;;;;;5.18;100.00;101471.53;5051580;28;20021;-92
2023/12/20 05:49:56;;;;;;;12.57;2.20;;;;;;;5.17;100.00;101467.22;5040536;28;20548;-92
2023/12/20 05:52:21;;;;;;;11.57;2.13;;;;;;;5.19;100.00;101469.84;5036835;28;20025;-93
2023/12/20 05:54:47;;;;;;;10.82;2.00;;;;;;;5.19;100.00;101462.94;5038438;28;20029;-93
2023/12/20 05:57:13;;;;;;;11.65;2.10;;;;;;;5.20;100.00;101468.97;5054466;28;20036;-93
2023/12/20 05:59:38;;;;;;;9.02;2.30;;;;;;;5.21;100.00;101471.56;5045460;28;20492;-94
2023/12/20 06:02:04;;;;;;;9.00;1.83;;;;;;;5.21;100.00;101476.72;5040311;28;20029;-93
2023/12/20 06:04:30;;;;;;;11.45;2.22;;;;;;;5.17;100.00;101477.53;5038853;28;20017;-94
2023/12/20 06:06:55;;;;;;;8.57;1.90;;;;;;;5.17;100.00;101482.69;5042702;28;20052;-93
2023/12/20 06:09:21;;;;;;;13.15;2.22;;;;;;;5.16;100.00;101491.28;5056726;28;20033;-91
2023/12/20 06:11:46;;;;;;;8.70;1.90;;;;;;;5.15;100.00;101481.81;5054186;28;20021;-95
2023/12/20 06:14:11;;;;;;;11.70;1.83;;;;;;;5.14;100.00;101491.28;5056461;28;20030;-94
2023/12/20 06:16:37;;;;;;;9.57;2.20;;;;;;;5.15;100.00;101495.59;5034548;28;20134;-94
2023/12/20 06:19:02;;;;;;;10.18;2.13;;;;;;;5.15;100.00;101492.13;5057354;28;20504;-95
2023/12/20 06:21:28;;;;;;;11.85;2.20;;;;;;;5.13;100.00;101499.00;5054583;28;20020;-92
2023/12/20 06:23:53;;;;;;;8.27;1.75;;;;;;;5.14;100.00;101503.31;5048784;28;20028;-93
2023/12/20 06:26:18;;;;;;;8.68;1.80;;;;;;;5.11;100.00;101506.72;5043814;28;20365;-93
2023/12/20 06:28:44;;;;;;;11.32;2.08;;;;;;;5.13;100.00;101505.03;5041192;28;20064;-93
2023/12/20 06:31:09;;;;;;;15.07;2.33;;;;;;;5.12;100.00;101502.47;5061908;28;20096;-92
2023/12/20 06:33:34;;;;;;;8.57;1.80;;;;;;;5.12;100.00;101502.47;5056702;28;20025;-92
2023/12/20 06:36:00;;;;;;;7.57;1.92;;;;;;;5.09;100.00;101492.97;5039610;28;20024;-94
2023/12/20 06:38:26;;;;;;;11.98;2.00;;;;;;;5.10;100.00;101499.00;5042097;28;20309;-94
2023/12/20 06:40:51;;;;;;;9.03;2.00;;;;;;;5.11;100.00;101500.72;5052398;28;20428;-94
2023/12/20 06:43:17;;;;;;;8.43;2.33;;;;;;;5.08;100.00;101492.97;5035861;28;20067;-92
2023/12/20 06:45:42;;;;;;;10.05;2.00;;;;;;;5.07;100.00;101494.66;5049894;28;20734;-91
2023/12/20 06:48:07;;;;;;;13.38;2.10;;;;;;;5.04;100.00;101489.47;5060571;28;20029;-95
2023/12/20 06:50:34;;;;;;;12.25;2.33;;;;;;;5.07;100.00;101491.22;5030151;28;20402;-93
2023/12/20 06:53:06;;;;;;;11.93;2.63;;;;;;;5.06;100.00;101492.09;5054432;28;20027;-92
2023/12/20 06:55:31;;;;;;;10.20;2.38;;;;;;;5.07;100.00;101488.66;5039733;28;20471;-94
2023/12/20 06:57:57;;;;;;;14.60;2.37;;;;;;;5.06;100.00;101494.66;5042425;28;20536;-93
2023/12/20 07:00:22;;;;;;;11.30;2.23;;;;;;;5.06;100.00;101497.25;5056262;28;21579;-95
2023/12/20 07:02:49;;;;;;;10.03;2.20;;;;;;;5.04;100.00;101493.78;5036970;28;20031;-91
2023/12/20 07:05:19;;;;;;;8.07;2.10;;;;;;;5.05;100.00;101498.09;5039511;28;20016;-93
2023/12/20 07:07:46;;;;;;;8.63;2.35;;;;;;;5.07;100.00;101486.06;5045496;28;20059;-93
2023/12/20 07:10:12;;;;;;;12.55;2.70;;;;;;;5.05;100.00;101490.34;5049716;28;20109;-92
2023/12/20 07:12:37;;;;;;;9.68;2.60;;;;;;;5.01;100.00;101495.47;5031527;28;20115;-94
2023/12/20 07:15:03;;;;;;;11.70;2.87;;;;;;;5.01;100.00;101489.47;5039618;28;20087;-91
2023/12/20 07:17:28;;;;;;;12.77;3.00;;;;;;;5.00;100.00;101493.75;5060249;28;20041;-92
2023/12/20 07:19:54;;;;;;;13.07;2.85;;;;;;;4.99;100.00;101494.59;5060136;28;20561;-93
2023/12/20 07:22:19;;;;;;;13.68;2.80;;;;;;;4.98;100.00;101484.28;5052563;28;20120;-93
2023/12/20 07:24:45;;;;;;;13.90;3.00;;;;;;;4.99;100.00;101484.28;5035769;28;20036;-92
2023/12/20 07:27:11;;;;;;;8.20;2.63;;;;;;;5.00;100.00;101485.16;5034516;28;20017;-94
2023/12/20 07:29:36;;;;;;;12.53;3.20;;;;;;;4.97;100.00;101488.56;5056643;28;20082;-93
2023/12/20 07:32:02;;;;;;;10.85;3.13;;;;;;;4.97;100.00;101487.72;5043702;28;20056;-93
2023/12/20 07:34:27;;;;;;;12.15;2.80;;;;;;;4.95;100.00;101485.09;5037470;28;20967;-93
2023/12/20 07:36:53;;;;;;;9.43;2.80;;;;;;;4.97;100.00;101491.16;5042702;28;20124;-96
2023/12/20 07:39:18;;;;;;;9.43;2.60;;;;;;;4.96;100.00;101484.25;5040788;28;20025;-95
2023/12/20 07:41:44;;;;;;;7.30;2.63;;;;;;;4.96;100.00;101481.69;5064125;28;20041;-92
2023/12/20 07:44:09;;;;;;;13.27;3.10;;;;;;;4.96;100.00;101475.69;5052094;28;20112;-93
2023/12/20 07:46:35;;;;;;;15.20;2.67;;;;;;;4.97;100.00;101478.25;5059203;28;20031;-94
2023/12/20 07:49:03;;;;;;;11.93;2.70;;;;;;;4.95;100.00;101468.78;5044504;28;20134;-93
2023/12/20 07:51:29;;;;;;;11.75;3.30;;;;;;;4.95;100.00;101474.78;5040214;28;20091;-92
2023/12/20 07:53:54;;;;;;;8.87;2.73;;;;;;;4.95;100.00;101472.22;5049210;28;20369;-93
2023/12/20 07:56:22;;;;;;;11.02;2.78;;;;;;;4.97;100.00;101470.50;5048301;28;21442;-92
2023/12/20 07:58:48;;;;;;;13.48;3.08;;;;;;;4.96;100.00;101476.53;5065153;28;20013;-91
2023/12/20 08:01:16;;;;;;;12.23;2.83;;;;;;;4.97;100.00;101473.09;5052871;28;20066;-93
2023/12/20 08:03:41;;;;;;;9.63;2.40;;;;;;;4.99;100.00;101486.88;5038804;28;20033;-94
2023/12/20 08:06:07;;;;;;;14.63;2.53;;;;;;;5.00;100.00;101477.44;5058496;28;20102;-93
2023/12/20 08:08:32;;;;;;;10.57;2.43;;;;;;;5.00;100.00;101488.59;5038767;28;20124;-93
2023/12/20 08:10:59;;;;;;;13.07;2.50;;;;;;;5.03;100.00;101492.94;5047237;28;20037;-95
2023/12/20 08:13:26;;;;;;;8.10;2.20;;;;;;;5.01;100.00;101490.31;5040953;28;20117;-93
2023/12/20 08:15:52;;;;;;;12.27;2.97;;;;;;;5.05;100.00;101495.50;5058525;28;20029;-92
2023/12/20 08:18:17;;;;;;;10.38;2.63;;;;;;;5.06;100.00;101492.09;5036485;28;20075;-92
2023/12/20 08:20:42;;;;;;;13.40;2.40;;;;;;;5.08;100.00;101496.38;5052680;28;20041;-92
2023/12/20 08:23:08;;;;;;;8.00;2.70;;;;;;;5.10;100.00;101499.00;5038607;28;20114;-92
2023/12/20 08:25:41;;;;;;;10.10;2.20;;;;;;;5.10;100.00;101499.84;5036481;28;20052;-94
2023/12/20 08:28:07;;;;;;;12.63;2.87;;;;;;;5.10;100.00;101499.00;5049732;28;20048;-92
2023/12/20 08:30:32;;;;;;;10.85;2.38;;;;;;;5.11;100.00;101509.31;5028983;28;20104;-92
2023/12/20 08:33:01;;;;;;;14.43;2.60;;;;;;;5.16;100.00;101504.19;5053072;28;20047;-93
2023/12/20 08:35:27;;;;;;;11.82;2.38;;;;;;;5.16;100.00;101505.06;5059019;28;20025;-96
2023/12/20 08:37:53;;;;;;;12.52;2.20;;;;;;;5.20;100.00;101500.78;5056632;28;20036;-94
2023/12/20 08:40:21;;;;;;;10.10;2.28;;;;;;;5.21;100.00;101499.94;5041583;28;20193;-95
2023/12/20 08:42:46;;;;;;;10.77;3.10;;;;;;;5.23;100.00;101490.50;5042547;28;20499;-93
2023/12/20 08:45:11;;;;;;;8.45;2.15;;;;;;;5.28;100.00;101493.09;5057515;28;20043;-94
2023/12/20 08:47:37;;;;;;;14.77;3.00;;;;;;;5.29;100.00;101495.69;5040030;28;20115;-96
2023/12/20 08:50:03;;;;;;;9.50;2.30;;;;;;;5.35;100.00;101488.84;5042488;28;20033;-94
2023/12/20 08:52:29;;;;;;;12.10;2.30;;;;;;;5.36;100.00;101472.50;5037801;28;20448;-95
2023/12/20 08:54:57;;;;;;;10.60;2.78;;;;;;;5.37;100.00;101477.69;5057738;28;20041;-95
2023/12/20 08:57:23;;;;;;;12.48;2.47;;;;;;;5.39;100.00;101475.09;5039395;28;20115;-92
2023/12/20 08:59:54;;;;;;;12.00;2.70;;;;;;;5.40;100.00;101469.09;5035126;28;20113;-92
2023/12/20 09:02:20;;;;;;;13.60;2.88;;;;;;;5.41;100.00;101470.81;5058171;28;20077;-93
2023/12/20 09:04:45;;;;;;;14.48;2.60;;;;;;;5.43;100.00;101471.69;5043466;28;20016;-94
2023/12/20 09:07:26;;;;;;;9.93;3.35;;;;;;;5.43;100.00;101479.44;5058381;28;20032;-92
2023/12/20 09:09:52;;;;;;;13.65;2.53;;;;;;;5.48;100.00;101472.56;5058384;28;20035;-93
2023/12/20 09:12:19;;;;;;;12.75;2.47;;;;;;;5.47;100.00;101473.41;5040057;28;20119;-92
2023/12/20 09:14:45;;;;;;;11.43;2.40;;;;;;;5.46;100.00;101482.91;5050820;28;20472;-91
2023/12/20 09:17:11;;;;;;;13.00;2.35;;;;;;;5.48;100.00;101480.31;5037200;28;20118;-94
2023/12/20 09:19:39;;;;;;;13.90;3.00;;;;;;;5.53;100.00;101472.63;5058992;28;20017;-94
2023/12/20 09:22:05;;;;;;;12.27;2.70;;;;;;;5.53;100.00;101468.31;5044192;28;20063;-93
2023/12/20 09:24:54;;;;;;;9.13;2.35;;;;;;;5.54;100.00;101489.84;5048467;28;20025;-94
2023/12/20 09:27:19;;;;;;;10.50;2.50;;;;;;;5.54;100.00;101482.94;5036257;28;20020;-92
2023/12/20 09:29:44;;;;;;;11.18;2.80;;;;;;;5.57;100.00;101479.50;5051694;28;20935;-91
2023/12/20 09:32:10;;;;;;;7.63;2.20;;;;;;;5.60;100.00;101464.91;5052137;28;20060;-93
2023/12/20 09:34:37;;;;;;;11.05;2.50;;;;;;;5.59;100.00;101468.34;5037299;28;20071;-92
2023/12/20 09:37:08;;;;;;;8.90;2.25;;;;;;;5.59;100.00;101475.22;5050575;28;20140;-92
2023/12/20 09:39:34;;;;;;;;;;;;;;;5.60;100.00;101469.19;5027194;28;20203;-92
2023/12/20 09:41:59;;;;;;;9.95;2.42;;;;;;;5.61;100.00;101470.91;5039248;28;20110;-93
2023/12/20 09:44:25;;;;;;;11.35;2.92;;;;;;;5.65;100.00;101466.63;5043561;28;20033;-94
2023/12/20 09:46:52;;;;;;;14.18;2.90;;;;;;;5.66;100.00;101473.50;5040749;28;20025;-95
2023/12/20 09:49:18;;;;;;;12.05;2.60;;;;;;;5.65;100.00;101472.66;5050162;28;20025;-91
2023/12/20 09:52:08;;;;;;;12.43;3.00;;;;;;;5.67;100.00;101480.41;5044291;28;20086;-96
2023/12/20 09:54:40;;;;;;;9.80;2.50;;;;;;;5.60;100.00;101474.34;5031817;28;20044;-94
2023/12/20 09:57:06;;;;;;;10.95;2.20;;;;;;;5.60;100.00;101475.25;5031222;28;20209;-91
2023/12/20 09:59:31;;;;;;;13.52;3.10;;;;;;;5.64;100.00;101475.25;5023328;28;20200;-91
2023/12/20 10:01:57;;;;;;;10.50;2.38;;;;;;;5.67;100.00;101475.25;5048106;28;20017;-92
2023/12/20 10:04:23;;;;;;;14.57;2.40;;;;;;;5.66;100.00;101466.66;5058792;28;20112;-92
2023/12/20 10:06:48;;;;;;;6.15;2.05;;;;;;;5.68;100.00;101464.94;5071289;28;20474;-91
2023/12/20 10:09:15;;;;;;;12.00;2.90;;;;;;;5.69;100.00;101470.97;5036022;28;20058;-92
2023/12/20 10:11:43;;;;;;;9.88;1.88;;;;;;;5.71;100.00;101461.50;5057181;28;20043;-94
2023/12/20 10:14:10;;;;;;;10.60;2.75;;;;;;;5.72;100.00;101460.66;5039995;28;20115;-93
2023/12/20 10:16:36;;;;;;;14.32;2.67;;;;;;;5.74;100.00;101471.84;5055486;28;20211;-92
2023/12/20 10:19:06;;;;;;;10.95;2.15;;;;;;;5.73;100.00;101470.13;5034514;28;20186;-92
2023/12/20 10:21:32;;;;;;;11.50;2.20;;;;;;;5.74;100.00;101470.13;5017635;28;20424;-92
2023/12/20 10:23:57;;;;;;;13.07;2.15;;;;;;;5.76;100.00;101467.56;5019200;28;20022;-94
2023/12/20 10:26:29;;;;;;;9.57;1.73;;;;;;;5.78;100.00;101468.44;5030251;28;20335;-92
2023/12/20 10:29:04;;;;;;;8.60;2.00;;;;;;;5.83;100.00;101471.88;5031807;28;20391;-93
2023/12/20 10:31:34;;;;;;;12.45;1.90;;;;;;;5.85;100.00;101490.81;5029830;28;20033;-93
2023/12/20 10:39:24;;;;;;;10.85;2.17;;;;;;;5.93;100.00;101462.44;5016836;28;20030;-92
2023/12/20 10:41:49;;;;;;;12.50;2.45;;;;;;;5.98;100.00;101454.75;4985302;28;20030;-89
2023/12/20 10:44:16;;;;;;;11.00;2.13;;;;;;;5.98;100.00;101444.41;5006418;28;20025;-92
2023/12/20 10:46:47;;;;;;;6.97;1.92;;;;;;;5.99;100.00;101446.09;5013746;28;20037;-92
2023/12/20 10:49:17;;;;;;;11.20;1.90;;;;;;;6.02;100.00;101444.44;5004561;28;20496;-92
2023/12/20 10:51:43;;;;;;;10.45;1.90;;;;;;;6.05;100.00;101448.75;5023577;28;20033;-90
2023/12/20 10:54:19;;;;;;;;;;;;;;;;;;;;;
2023/12/20 10:57:18;;;;;;;;;;;;;;;;;;;;;
2023/12/20 10:59:47;;;;;;;7.85;2.05;;;;;;;6.07;100.00;101441.88;5029806;28;20112;-92
2023/12/20 11:05:25;;;;;;;11.68;2.17;;;;;;;6.10;100.00;101441.00;4960693;28;20023;-96
2023/12/20 11:08:03;;;;;;;7.15;2.10;;;;;;;6.07;100.00;101440.13;5038687;28;20029;-93
2023/12/20 11:10:50;;;;;;;10.43;1.77;;;;;;;6.11;100.00;101441.03;5045292;28;20021;-94
2023/12/20 11:13:37;;;;;;;8.43;2.08;;;;;;;6.14;100.00;101428.13;5030964;28;20021;-92
2023/12/20 11:16:03;;;;;;;10.57;2.00;;;;;;;6.19;100.00;101430.72;5029381;28;20025;-93
2023/12/20 11:18:32;;;;;;;13.75;2.20;;;;;;;6.19;100.00;101417.78;5028898;28;20050;-94
2023/12/20 11:21:10;;;;;;;8.90;1.98;;;;;;;6.21;100.00;101432.44;5028466;28;20033;-94
2023/12/20 11:23:36;;;;;;;9.70;2.30;;;;;;;6.23;100.00;101417.78;5034492;28;20432;-94
2023/12/20 11:26:02;;;;;;;10.32;2.22;;;;;;;6.20;100.00;101420.38;5043240;28;20469;-93
2023/12/20 11:28:31;;;;;;;10.98;2.10;;;;;;;6.20;100.00;101417.78;5031171;28;20385;-94